Time;durP1;ratioP1;P1;durP2;ratioP2;P2;SDS_P1;SDS_P2;PMS_P1;PMS_P2;Temp;Humidity;BMP_temperature;BMP_pressure;BME280_temperature;BME280_humidity;BME280_pressure;Samples;Min_cycle;Max_cycle;Signal;HPM_P1;HPM_P2
2023/08/06 00:02:00;;;;;;;3.20;2.08;;;;;;;15.20;100.00;100472.38;6255100;28;20046;-76
2023/08/06 00:05:02;;;;;;;3.33;2.00;;;;;;;15.19;100.00;100474.19;6255018;28;20057;-76
2023/08/06 00:08:03;;;;;;;3.03;1.67;;;;;;;15.28;100.00;100477.09;6254677;28;20046;-76
2023/08/06 00:11:05;;;;;;;2.88;2.03;;;;;;;15.26;100.00;100473.69;6254646;28;20072;-76
2023/08/06 00:14:07;;;;;;;3.25;1.95;;;;;;;15.19;100.00;100471.53;6254683;28;20049;-76
2023/08/06 00:17:09;;;;;;;7.15;2.45;;;;;;;15.23;100.00;100478.28;6254470;28;20438;-76
2023/08/06 00:20:11;;;;;;;1.83;1.58;;;;;;;15.22;100.00;100475.75;6254702;28;20057;-76
2023/08/06 00:23:12;;;;;;;2.85;1.95;;;;;;;15.18;100.00;100480.44;6254221;28;20072;-76
2023/08/06 00:26:14;;;;;;;6.97;2.42;;;;;;;15.20;100.00;100478.50;6269997;22;20456;-78
2023/08/06 00:29:16;;;;;;;3.05;1.95;;;;;;;15.23;100.00;100480.94;6229687;28;20052;-78
2023/08/06 00:32:18;;;;;;;2.00;1.73;;;;;;;15.30;100.00;100483.09;6229457;28;20054;-78
2023/08/06 00:35:20;;;;;;;3.47;2.30;;;;;;;15.28;100.00;100475.28;6229563;28;20068;-78
2023/08/06 00:38:21;;;;;;;3.65;2.30;;;;;;;15.23;100.00;100472.97;6228795;28;20053;-78
2023/08/06 00:41:23;;;;;;;4.45;1.90;;;;;;;15.23;100.00;100469.50;6213435;28;20057;-78
2023/08/06 00:44:26;;;;;;;4.22;2.03;;;;;;;15.22;100.00;100465.16;6219616;28;20062;-78
2023/08/06 00:47:27;;;;;;;3.75;1.83;;;;;;;15.25;100.00;100458.78;6229242;28;20362;-77
2023/08/06 00:50:29;;;;;;;4.40;2.53;;;;;;;15.16;100.00;100458.53;6228430;28;20050;-78
2023/08/06 00:53:30;;;;;;;2.60;2.00;;;;;;;15.14;100.00;100441.09;6221483;28;20054;-77
2023/08/06 00:56:33;;;;;;;3.40;2.42;;;;;;;15.05;100.00;100437.34;6228478;28;20336;-78
2023/08/06 00:59:36;;;;;;;2.75;1.98;;;;;;;15.04;100.00;100437.47;6228963;28;20050;-77
2023/08/06 01:02:38;;;;;;;3.60;2.05;;;;;;;15.03;100.00;100431.31;6228811;28;20465;-77
2023/08/06 01:05:40;;;;;;;5.35;1.85;;;;;;;15.08;100.00;100433.59;6228646;28;20046;-77
2023/08/06 01:08:53;;;;;;;7.28;2.33;;;;;;;15.04;100.00;100419.78;6229004;28;20061;-78
2023/08/06 01:12:06;;;;;;;4.00;2.15;;;;;;;15.12;100.00;100412.06;6228625;28;20042;-78
2023/08/06 01:15:14;;;;;;;2.90;2.05;;;;;;;15.14;100.00;100398.75;6228518;28;20054;-77
2023/08/06 01:18:16;;;;;;;4.03;2.30;;;;;;;15.15;100.00;100389.81;6228383;28;20053;-78
2023/08/06 01:21:19;;;;;;;4.43;2.30;;;;;;;15.15;100.00;100389.81;6228456;28;20346;-77
2023/08/06 01:24:21;;;;;;;3.22;1.88;;;;;;;15.08;100.00;100385.97;6228221;28;20057;-77
2023/08/06 01:27:29;;;;;;;2.97;2.05;;;;;;;15.07;100.00;100393.06;6228316;28;20132;-77
2023/08/06 01:30:35;;;;;;;2.92;2.20;;;;;;;15.04;100.00;100388.03;6228260;28;20042;-77
2023/08/06 01:33:44;;;;;;;3.70;2.45;;;;;;;15.02;100.00;100397.88;6227918;28;20354;-78
2023/08/06 01:36:47;;;;;;;3.85;2.33;;;;;;;15.04;100.00;100388.03;6228119;28;20057;-77
2023/08/06 01:39:49;;;;;;;3.25;2.17;;;;;;;15.02;100.00;100382.00;6228366;28;20061;-78
2023/08/06 01:42:50;;;;;;;3.88;2.35;;;;;;;15.02;100.00;100373.22;6227912;28;20050;-77
2023/08/06 01:45:51;;;;;;;3.28;2.25;;;;;;;15.06;100.00;100372.84;6227907;28;20046;-78
2023/08/06 01:48:53;;;;;;;6.22;2.22;;;;;;;15.07;100.00;100365.75;6227909;28;20054;-77
2023/08/06 01:51:55;;;;;;;5.25;2.15;;;;;;;15.07;100.00;100366.59;6227930;28;20042;-77
2023/08/06 01:54:57;;;;;;;3.20;2.28;;;;;;;15.06;100.00;100359.63;6227573;28;20052;-77
2023/08/06 01:57:59;;;;;;;3.80;2.33;;;;;;;15.11;100.00;100357.47;6227478;28;20045;-77
2023/08/06 02:01:01;;;;;;;4.43;2.30;;;;;;;15.07;100.00;100348.06;6227891;28;20461;-77
2023/08/06 02:04:03;;;;;;;3.03;2.10;;;;;;;15.08;100.00;100364.78;6227211;28;20050;-78
2023/08/06 02:07:06;;;;;;;4.43;2.60;;;;;;;15.04;100.00;100355.44;6227545;28;20220;-77
2023/08/06 02:10:08;;;;;;;4.10;2.70;;;;;;;15.03;100.00;100364.31;6226484;28;20373;-78
2023/08/06 02:13:10;;;;;;;3.42;2.38;;;;;;;15.01;100.00;100360.97;6227308;28;20049;-77
2023/08/06 02:16:11;;;;;;;3.13;2.30;;;;;;;14.96;100.00;100356.84;6227070;28;20057;-77
2023/08/06 02:19:12;;;;;;;3.63;2.63;;;;;;;14.98;100.00;100348.78;6227366;28;20070;-77
2023/08/06 02:22:15;;;;;;;4.60;2.47;;;;;;;14.96;100.00;100345.44;6227007;28;20438;-77
2023/08/06 02:25:17;;;;;;;4.65;2.35;;;;;;;14.94;100.00;100348.22;6227229;28;20061;-78
2023/08/06 02:28:18;;;;;;;5.90;2.92;;;;;;;14.91;100.00;100340.50;6226810;28;20053;-77
2023/08/06 02:31:19;;;;;;;6.22;3.00;;;;;;;14.85;100.00;100350.69;6226001;28;20057;-77
2023/08/06 02:34:21;;;;;;;4.05;2.75;;;;;;;14.93;100.00;100350.97;6226724;28;20054;-78
2023/08/06 02:37:24;;;;;;;5.00;3.03;;;;;;;14.91;100.00;100344.97;6226281;28;20454;-78
2023/08/06 02:40:25;;;;;;;4.10;2.60;;;;;;;14.93;100.00;100343.03;6221513;28;20054;-78
2023/08/06 02:43:26;;;;;;;4.13;2.53;;;;;;;14.85;100.00;100327.75;6216360;28;20050;-78
2023/08/06 02:46:28;;;;;;;8.20;3.83;;;;;;;14.83;100.00;100332.31;6218581;28;20056;-77
2023/08/06 02:49:29;;;;;;;4.90;3.00;;;;;;;14.87;100.00;100328.47;6226575;28;20361;-77
2023/08/06 02:52:32;;;;;;;5.25;3.17;;;;;;;14.85;100.00;100329.53;6226292;28;20354;-77
2023/08/06 02:55:33;;;;;;;7.38;2.40;;;;;;;14.84;100.00;100325.22;6226184;28;20046;-77
2023/08/06 02:58:35;;;;;;;4.07;3.00;;;;;;;14.80;100.00;100321.97;6226410;28;20060;-78
2023/08/06 03:01:37;;;;;;;4.50;3.03;;;;;;;14.80;100.00;100310.53;6226383;28;20046;-77
2023/08/06 03:04:38;;;;;;;5.10;3.08;;;;;;;14.84;100.00;100312.00;6226058;28;20057;-78
2023/08/06 03:07:41;;;;;;;5.50;3.45;;;;;;;14.85;100.00;100298.66;6226357;28;20046;-78
2023/08/06 03:10:42;;;;;;;6.35;3.90;;;;;;;14.80;100.00;100308.72;6226316;28;20049;-78
2023/08/06 03:13:44;;;;;;;6.05;3.47;;;;;;;14.85;100.00;100298.66;6226033;28;20050;-77
2023/08/06 03:16:45;;;;;;;6.68;3.47;;;;;;;14.84;100.00;100288.19;6225939;28;20096;-77
2023/08/06 03:19:46;;;;;;;8.93;4.53;;;;;;;14.81;100.00;100288.44;6226052;28;20049;-78
2023/08/06 03:22:50;;;;;;;12.85;4.75;;;;;;;14.78;100.00;100284.22;6225820;28;20350;-77
2023/08/06 03:25:52;;;;;;;9.85;5.15;;;;;;;14.83;100.00;100282.06;6225865;28;20076;-78
2023/08/06 03:28:53;;;;;;;14.23;7.20;;;;;;;14.77;100.00;100271.97;6226119;28;20176;-78
2023/08/06 03:31:54;;;;;;;14.38;5.95;;;;;;;14.76;100.00;100278.22;6225880;28;20050;-77
2023/08/06 03:34:56;;;;;;;15.73;6.32;;;;;;;14.78;100.00;100268.34;6225766;28;20570;-78
2023/08/06 03:37:58;;;;;;;14.50;6.65;;;;;;;14.76;100.00;100256.19;6225324;28;20357;-77
2023/08/06 03:41:00;;;;;;;13.23;6.30;;;;;;;14.77;100.00;100258.72;6225998;28;20057;-77
2023/08/06 03:44:03;;;;;;;14.70;7.25;;;;;;;14.76;100.00;100251.78;6225579;28;20057;-77
2023/08/06 03:47:05;;;;;;;15.65;7.28;;;;;;;14.75;100.00;100250.06;6225901;28;20052;-77
2023/08/06 03:50:07;;;;;;;14.50;6.97;;;;;;;14.75;100.00;100244.78;6225783;28;20406;-78
2023/08/06 03:53:10;;;;;;;14.02;7.53;;;;;;;14.83;100.00;100249.47;6225696;28;20052;-78
2023/08/06 03:56:11;;;;;;;20.85;7.68;;;;;;;14.82;100.00;100253.91;6225439;28;20204;-78
2023/08/06 03:59:13;;;;;;;19.25;7.60;;;;;;;14.78;100.00;100257.75;6225851;28;20046;-78
2023/08/06 04:02:14;;;;;;;16.90;7.60;;;;;;;14.77;100.00;100253.44;6225851;28;20053;-78
2023/08/06 04:05:15;;;;;;;18.85;8.40;;;;;;;14.75;100.00;100247.41;6225280;28;20050;-77
2023/08/06 04:08:18;;;;;;;20.92;8.52;;;;;;;14.70;100.00;100261.00;6225597;28;20061;-77
2023/08/06 04:11:20;;;;;;;24.45;9.27;;;;;;;14.69;100.00;100259.31;6225580;28;20431;-77
2023/08/06 04:14:21;;;;;;;21.42;7.82;;;;;;;14.73;100.00;100251.16;6224378;28;20363;-77
2023/08/06 04:17:23;;;;;;;21.42;8.30;;;;;;;14.69;100.00;100243.47;6223403;28;20054;-78
2023/08/06 04:20:24;;;;;;;21.45;8.63;;;;;;;14.66;100.00;100251.63;6217328;28;20457;-77
2023/08/06 04:23:27;;;;;;;24.52;8.90;;;;;;;14.66;100.00;100248.13;6217186;28;20059;-78
2023/08/06 04:26:29;;;;;;;21.08;8.20;;;;;;;14.68;100.00;100243.59;6201139;28;20061;-78
2023/08/06 04:29:30;;;;;;;25.80;8.93;;;;;;;14.63;100.00;100245.75;6202046;28;20485;-77
2023/08/06 04:32:31;;;;;;;25.75;8.60;;;;;;;14.61;100.00;100251.16;6218723;28;20053;-77
2023/08/06 04:35:33;;;;;;;21.77;8.60;;;;;;;14.62;100.00;100252.81;6229501;28;20056;-77
2023/08/06 04:38:35;;;;;;;21.02;9.55;;;;;;;14.56;100.00;100255.94;6229507;28;20577;-77
2023/08/06 04:41:37;;;;;;;22.45;8.60;;;;;;;14.67;100.00;100261.25;6228885;28;20045;-77
2023/08/06 04:44:38;;;;;;;26.25;9.00;;;;;;;14.64;100.00;100255.38;6220781;28;20054;-77
2023/08/06 04:47:39;;;;;;;20.73;8.73;;;;;;;14.70;100.00;100258.34;6227722;28;20057;-77
2023/08/06 04:50:44;;;;;;;24.55;8.88;;;;;;;14.69;100.00;100263.78;6219495;28;20054;-77
2023/08/06 04:53:47;;;;;;;22.13;9.32;;;;;;;14.69;100.00;100253.19;6219783;28;20042;-75
2023/08/06 04:56:48;;;;;;;27.30;9.00;;;;;;;14.64;100.00;100258.84;6212562;28;20046;-75
2023/08/06 04:59:50;;;;;;;26.25;9.40;;;;;;;14.60;100.00;100262.69;6204930;28;20061;-75
2023/08/06 05:02:51;;;;;;;25.83;9.05;;;;;;;14.58;100.00;100264.63;6204456;28;20053;-75
2023/08/06 05:05:53;;;;;;;28.38;10.23;;;;;;;14.55;100.00;100266.66;6204482;28;20046;-75
2023/08/06 05:08:55;;;;;;;21.45;8.50;;;;;;;14.57;100.00;100264.72;6204478;28;20058;-75
2023/08/06 05:11:57;;;;;;;29.85;10.60;;;;;;;14.46;100.00;100260.25;6204242;28;20491;-75
2023/08/06 05:14:58;;;;;;;27.23;9.05;;;;;;;14.52;100.00;100264.25;6204310;28;20050;-76
2023/08/06 05:18:00;;;;;;;24.20;9.15;;;;;;;14.54;100.00;100265.81;6204172;28;20051;-76
2023/08/06 05:21:01;;;;;;;21.52;7.53;;;;;;;14.53;100.00;100263.28;6204360;28;20116;-75
2023/08/06 05:24:04;;;;;;;28.92;9.10;;;;;;;14.55;100.00;100261.38;6203853;28;20053;-75
2023/08/06 05:27:06;;;;;;;25.13;8.40;;;;;;;14.56;100.00;100261.25;6206575;28;20069;-77
2023/08/06 05:30:09;;;;;;;23.40;8.30;;;;;;;14.56;100.00;100257.75;6203928;28;20359;-77
2023/08/06 05:33:10;;;;;;;23.92;9.48;;;;;;;14.66;100.00;100262.19;6224116;28;20045;-77
2023/08/06 05:36:12;;;;;;;26.42;9.77;;;;;;;14.67;100.00;100258.63;6225706;28;20049;-77
2023/08/06 05:39:14;;;;;;;24.95;9.70;;;;;;;14.70;100.00;100260.16;6209301;28;20140;-77
2023/08/06 05:42:16;;;;;;;24.77;9.55;;;;;;;14.74;100.00;100260.78;6203777;28;20050;-77
2023/08/06 05:45:18;;;;;;;26.95;9.93;;;;;;;14.81;100.00;100262.00;6218508;28;20331;-77
2023/08/06 05:48:22;;;;;;;23.35;9.15;;;;;;;14.86;100.00;100265.09;6226576;28;20380;-77
2023/08/06 05:51:23;;;;;;;24.48;10.05;;;;;;;14.76;100.00;100269.41;6226307;28;20106;-77
2023/08/06 05:54:26;;;;;;;20.48;8.73;;;;;;;14.66;100.00;100269.31;6217591;28;20053;-76
2023/08/06 05:57:28;;;;;;;28.33;9.93;;;;;;;14.74;100.00;100266.06;6214173;28;20057;-76
2023/08/06 06:00:29;;;;;;;29.17;10.23;;;;;;;14.74;100.00;100271.34;6218178;28;20133;-77
2023/08/06 06:03:31;;;;;;;24.50;9.02;;;;;;;14.79;100.00;100262.09;6223969;28;20534;-77
2023/08/06 06:06:32;;;;;;;20.95;8.05;;;;;;;14.85;100.00;100263.41;6210834;28;20351;-76
2023/08/06 06:09:35;;;;;;;21.77;8.45;;;;;;;14.94;100.00;100263.53;6211022;28;20046;-76
2023/08/06 06:12:36;;;;;;;24.38;8.82;;;;;;;14.96;100.00;100260.75;6203064;28;20046;-77
2023/08/06 06:15:38;;;;;;;21.80;8.82;;;;;;;15.00;100.00;100258.72;6210853;28;20045;-77
2023/08/06 06:18:39;;;;;;;19.20;7.85;;;;;;;14.93;100.00;100258.34;6216800;28;20043;-78
2023/08/06 06:21:41;;;;;;;19.45;7.85;;;;;;;14.94;100.00;100252.09;6211707;28;20047;-77
2023/08/06 06:24:43;;;;;;;15.85;7.28;;;;;;;14.90;100.00;100255.97;6218578;28;20054;-77
2023/08/06 06:27:45;;;;;;;19.20;7.25;;;;;;;14.93;100.00;100259.19;6226913;28;20057;-77
2023/08/06 06:30:47;;;;;;;17.75;7.38;;;;;;;14.96;100.00;100255.47;6226837;28;20057;-77
2023/08/06 06:33:48;;;;;;;21.15;8.15;;;;;;;15.01;100.00;100260.41;6226463;28;20107;-75
2023/08/06 06:36:50;;;;;;;18.05;7.80;;;;;;;15.14;100.00;100259.28;6226953;28;20058;-75
2023/08/06 06:39:52;;;;;;;16.85;8.13;;;;;;;15.14;100.00;100256.66;6213718;28;20087;-75
2023/08/06 06:42:54;;;;;;;14.90;6.82;;;;;;;15.27;100.00;100258.31;6214999;28;20046;-76
2023/08/06 06:45:58;;;;;;;18.35;8.75;;;;;;;15.23;100.00;100252.41;6208687;28;20061;-75
2023/08/06 06:48:59;;;;;;;18.77;6.80;;;;;;;15.22;100.00;100254.22;6222035;28;20077;-76
2023/08/06 06:52:01;;;;;;;17.45;7.38;;;;;;;15.17;100.00;100255.53;6219576;28;20057;-76
2023/08/06 06:55:04;;;;;;;17.35;6.53;;;;;;;15.30;100.00;100245.66;6213770;28;20054;-79
2023/08/06 06:58:05;;;;;;;18.60;7.43;;;;;;;15.42;100.00;100251.75;6226391;28;20350;-73
2023/08/06 07:01:07;;;;;;;16.77;7.32;;;;;;;15.41;100.00;100242.16;6225319;28;20064;-74
2023/08/06 07:04:08;;;;;;;23.35;8.80;;;;;;;15.26;100.00;100235.44;6213426;28;20443;-75
2023/08/06 07:07:10;;;;;;;19.75;6.50;;;;;;;15.22;100.00;100241.00;6222385;28;20378;-75
2023/08/06 07:10:12;;;;;;;15.90;7.13;;;;;;;15.24;100.00;100232.91;6226039;28;20050;-75
2023/08/06 07:13:14;;;;;;;18.10;7.18;;;;;;;15.32;100.00;100241.09;6226156;28;20347;-75
2023/08/06 07:16:15;;;;;;;13.35;6.38;;;;;;;15.38;100.00;100245.03;6224829;28;20049;-75
2023/08/06 07:19:17;;;;;;;15.85;6.65;;;;;;;15.55;100.00;100243.66;6226347;28;20046;-75
2023/08/06 07:22:18;;;;;;;15.02;6.93;;;;;;;15.55;100.00;100241.03;6226072;28;20042;-75
2023/08/06 07:25:21;;;;;;;17.85;8.60;;;;;;;15.49;100.00;100239.72;6226272;28;20048;-75
2023/08/06 07:28:22;;;;;;;16.58;6.72;;;;;;;15.54;100.00;100236.69;6225962;28;20358;-75
2023/08/06 07:31:24;;;;;;;12.45;6.15;;;;;;;15.54;100.00;100234.03;6226155;28;20068;-75
2023/08/06 07:34:25;;;;;;;15.90;6.47;;;;;;;15.58;100.00;100240.75;6225659;28;20050;-74
2023/08/06 07:37:28;;;;;;;17.60;6.07;;;;;;;15.60;100.00;100230.88;6225775;28;20060;-75
2023/08/06 07:40:30;;;;;;;11.55;6.53;;;;;;;15.75;100.00;100226.16;6226125;28;20061;-75
2023/08/06 07:43:32;;;;;;;12.68;5.85;;;;;;;15.85;100.00;100241.16;6225641;28;20311;-75
2023/08/06 07:46:33;;;;;;;11.95;6.10;;;;;;;15.84;100.00;100235.97;6226011;28;20049;-75
2023/08/06 07:49:35;;;;;;;14.18;6.30;;;;;;;15.82;100.00;100236.09;6225707;28;20050;-75
2023/08/06 07:52:36;;;;;;;15.15;7.18;;;;;;;15.87;100.00;100236.56;6225788;28;20045;-75
2023/08/06 07:55:39;;;;;;;16.13;7.15;;;;;;;15.98;100.00;100239.13;6225522;28;20046;-75
2023/08/06 07:58:40;;;;;;;15.20;7.82;;;;;;;15.93;100.00;100229.91;6218766;28;20061;-75
2023/08/06 08:01:42;;;;;;;13.98;7.00;;;;;;;15.94;100.00;100237.75;6213678;28;20053;-75
2023/08/06 08:04:43;;;;;;;13.23;6.05;;;;;;;15.95;100.00;100227.97;6223842;28;20058;-75
2023/08/06 08:07:45;;;;;;;11.68;6.25;;;;;;;16.07;100.00;100224.28;6212948;28;20053;-75
2023/08/06 08:10:47;;;;;;;14.52;6.82;;;;;;;16.06;100.00;100227.91;6221860;28;20049;-75
2023/08/06 08:13:49;;;;;;;12.70;6.43;;;;;;;16.11;100.00;100228.34;6229654;28;20359;-75
2023/08/06 08:16:50;;;;;;;11.27;5.72;;;;;;;16.19;100.00;100223.25;6215276;28;20085;-75
2023/08/06 08:19:51;;;;;;;10.73;6.15;;;;;;;15.98;100.00;100222.41;6206026;28;20057;-75
2023/08/06 08:22:53;;;;;;;13.45;7.32;;;;;;;15.93;100.00;100225.44;6205449;28;20050;-75
2023/08/06 08:25:55;;;;;;;13.25;6.28;;;;;;;15.85;100.00;100229.69;6205192;28;20181;-74
2023/08/06 08:28:57;;;;;;;13.55;6.25;;;;;;;15.92;100.00;100225.59;6205602;28;20058;-75
2023/08/06 08:31:59;;;;;;;10.82;5.75;;;;;;;16.03;100.00;100220.19;6212144;28;20045;-75
2023/08/06 08:35:00;;;;;;;11.07;5.28;;;;;;;16.13;100.00;100217.63;6229371;28;20045;-75
2023/08/06 08:38:02;;;;;;;11.82;5.85;;;;;;;16.23;100.00;100205.28;6229523;28;20050;-75
2023/08/06 08:41:05;;;;;;;12.45;6.05;;;;;;;16.31;100.00;100202.81;6229824;28;20068;-75
2023/08/06 08:44:10;;;;;;;11.82;6.03;;;;;;;16.40;100.00;100206.47;6228058;28;20453;-74
2023/08/06 08:47:11;;;;;;;13.35;6.20;;;;;;;16.44;100.00;100210.53;6224253;28;20477;-75
2023/08/06 08:50:14;;;;;;;11.98;6.65;;;;;;;16.48;100.00;100209.28;6210305;28;20053;-74
2023/08/06 08:53:17;;;;;;;10.43;5.75;;;;;;;16.51;100.00;100202.88;6221066;28;20316;-75
2023/08/06 08:56:20;;;;;;;11.70;7.13;;;;;;;16.54;100.00;100207.94;6215473;28;20042;-74
2023/08/06 08:59:21;;;;;;;13.20;6.97;;;;;;;16.58;100.00;100202.22;6217639;28;20048;-75
2023/08/06 09:02:28;;;;;;;9.80;5.90;;;;;;;16.59;100.00;100206.56;6214980;28;20046;-75
2023/08/06 09:05:30;;;;;;;12.30;6.35;;;;;;;16.59;100.00;100209.22;6215286;28;20050;-75
2023/08/06 09:08:37;;;;;;;10.02;5.93;;;;;;;16.66;100.00;100206.84;6228165;28;20353;-75
2023/08/06 09:11:44;;;;;;;8.98;5.68;;;;;;;16.73;100.00;100202.72;6220404;28;20045;-74
2023/08/06 09:14:45;;;;;;;9.50;5.75;;;;;;;16.84;100.00;100202.59;6220269;28;20045;-74
2023/08/06 09:17:47;;;;;;;10.88;5.00;;;;;;;17.01;100.00;100197.63;6219387;28;20045;-74
2023/08/06 09:20:49;;;;;;;11.52;5.13;;;;;;;17.04;100.00;100206.16;6225076;28;20366;-74
2023/08/06 09:23:51;;;;;;;9.18;4.95;;;;;;;17.12;100.00;100203.66;6220033;28;20050;-74
2023/08/06 09:26:54;;;;;;;7.60;4.32;;;;;;;17.20;100.00;100200.31;6220136;28;20050;-74
2023/08/06 09:29:55;;;;;;;6.43;3.03;;;;;;;17.18;100.00;100200.47;6228315;28;20056;-74
2023/08/06 09:32:56;;;;;;;4.68;3.28;;;;;;;17.23;100.00;100205.34;6218766;28;20046;-74
2023/08/06 09:35:58;;;;;;;4.90;2.95;;;;;;;17.28;100.00;100200.47;6223056;28;20045;-74
2023/08/06 09:38:59;;;;;;;4.53;3.08;;;;;;;17.30;100.00;100197.66;6207213;28;20050;-74
2023/08/06 09:42:04;;;;;;;5.38;3.40;;;;;;;17.29;100.00;100194.16;6216940;28;20054;-74
2023/08/06 09:45:07;;;;;;;5.43;3.55;;;;;;;17.30;100.00;100189.69;6215946;28;20042;-74
2023/08/06 09:48:10;;;;;;;6.10;3.67;;;;;;;17.34;100.00;100193.75;6210396;28;20061;-74
2023/08/06 09:51:14;;;;;;;5.28;3.55;;;;;;;17.45;100.00;100189.16;6214347;28;20081;-74
2023/08/06 09:54:16;;;;;;;5.72;3.53;;;;;;;17.53;100.00;100198.22;6205409;28;20332;-74
2023/08/06 09:57:20;;;;;;;4.80;3.28;;;;;;;17.64;100.00;100190.13;6213061;28;20038;-74
2023/08/06 10:00:21;;;;;;;5.95;3.00;;;;;;;17.68;100.00;100188.88;6207457;28;20046;-74
2023/08/06 10:03:24;;;;;;;5.35;3.15;;;;;;;17.77;100.00;100188.06;6212798;28;20049;-74
2023/08/06 10:06:25;;;;;;;3.63;2.72;;;;;;;17.72;100.00;100185.78;6213138;28;20157;-74
2023/08/06 10:09:27;;;;;;;3.97;2.45;;;;;;;17.71;100.00;100177.94;6209324;28;20050;-74
2023/08/06 10:12:34;;;;;;;4.43;2.42;;;;;;;17.68;100.00;100179.06;6217004;28;20450;-74
2023/08/06 10:15:38;;;;;;;5.43;2.78;;;;;;;17.61;100.00;100180.59;6215713;28;20049;-76
2023/08/06 10:18:40;;;;;;;5.90;2.75;;;;;;;17.64;100.00;100175.03;6219830;28;20065;-74
2023/08/06 10:21:42;;;;;;;3.05;2.38;;;;;;;17.73;100.00;100179.53;6227277;28;20049;-74
2023/08/06 10:24:47;;;;;;;3.97;2.40;;;;;;;17.72;100.00;100180.47;6227110;28;20056;-74
2023/08/06 10:27:56;;;;;;;3.53;2.65;;;;;;;17.72;100.00;100161.03;6227123;28;20046;-76
2023/08/06 10:30:57;;;;;;;4.50;2.65;;;;;;;17.79;100.00;100162.16;6224282;28;20457;-76
2023/08/06 10:33:59;;;;;;;5.03;2.60;;;;;;;17.76;100.00;100165.13;6220825;28;20069;-76
2023/08/06 10:37:02;;;;;;;3.83;2.50;;;;;;;17.74;100.00;100157.28;6222080;28;20046;-75
2023/08/06 10:40:04;;;;;;;4.18;2.40;;;;;;;17.90;100.00;100156.69;6227017;28;20450;-76
2023/08/06 10:43:08;;;;;;;3.88;2.60;;;;;;;18.07;100.00;100157.75;6226615;28;20042;-76
2023/08/06 10:46:11;;;;;;;3.90;2.25;;;;;;;18.15;100.00;100154.38;6225610;28;20046;-75
2023/08/06 10:49:18;;;;;;;3.92;2.08;;;;;;;18.14;100.00;100148.22;6218340;28;20045;-75
2023/08/06 10:52:19;;;;;;;4.82;2.35;;;;;;;18.19;100.00;100150.44;6220824;28;20046;-75
2023/08/06 10:55:25;;;;;;;6.38;2.25;;;;;;;18.32;100.00;100142.16;6224179;28;20053;-75
2023/08/06 10:58:32;;;;;;;3.47;2.17;;;;;;;18.67;100.00;100142.25;6226641;28;20050;-75
2023/08/06 11:01:34;;;;;;;3.28;2.20;;;;;;;18.95;100.00;100145.75;6226351;28;20083;-75
2023/08/06 11:04:36;;;;;;;4.50;2.22;;;;;;;19.04;100.00;100141.34;6218127;28;20125;-75
2023/08/06 11:07:38;;;;;;;5.85;2.10;;;;;;;18.96;100.00;100136.75;6226389;28;20088;-75
2023/08/06 11:10:40;;;;;;;6.07;2.42;;;;;;;18.90;100.00;100148.03;6226198;28;20109;-75
2023/08/06 11:13:43;;;;;;;3.60;2.13;;;;;;;18.79;100.00;100148.22;6217822;28;20077;-75
2023/08/06 11:16:44;;;;;;;2.55;1.67;;;;;;;18.65;100.00;100136.22;6226452;28;20256;-75
2023/08/06 11:19:46;;;;;;;2.22;1.90;;;;;;;18.53;100.00;100145.41;6226182;28;20045;-75
2023/08/06 11:22:47;;;;;;;2.50;1.83;;;;;;;18.49;100.00;100141.38;6225979;28;20060;-75
2023/08/06 11:25:48;;;;;;;4.97;2.45;;;;;;;18.54;100.00;100135.59;6225862;28;20045;-75
2023/08/06 11:28:51;;;;;;;2.25;1.90;;;;;;;18.57;100.00;100132.63;6225867;28;20053;-75
2023/08/06 11:31:53;;;;;;;2.75;1.77;;;;;;;18.81;100.00;100124.97;6226133;28;20054;-75
2023/08/06 11:34:55;;;;;;;2.67;2.22;;;;;;;19.12;100.00;100117.47;6225599;28;20054;-75
2023/08/06 11:37:57;;;;;;;3.05;1.65;;;;;;;19.21;100.00;100123.66;6225827;28;20457;-74
2023/08/06 11:40:58;;;;;;;2.22;1.80;;;;;;;19.14;100.00;100117.28;6226594;28;20053;-75
2023/08/06 11:44:01;;;;;;;2.63;1.80;;;;;;;19.15;100.00;100125.13;6222458;28;20046;-75
2023/08/06 11:47:05;;;;;;;2.20;1.77;;;;;;;19.37;100.00;100117.66;6222340;28;20048;-74
2023/08/06 11:50:08;;;;;;;3.08;1.60;;;;;;;19.74;100.00;100110.31;6230950;28;20045;-74
2023/08/06 11:53:14;;;;;;;2.45;1.52;;;;;;;19.84;100.00;100112.03;6230533;28;20054;-75
2023/08/06 11:56:15;;;;;;;2.38;1.52;;;;;;;19.73;100.00;100110.47;6223800;28;20092;-76
2023/08/06 11:59:22;;;;;;;5.20;1.55;;;;;;;20.06;100.00;100110.66;6217801;28;20050;-74
2023/08/06 12:02:27;;;;;;;2.25;1.70;;;;;;;20.14;100.00;100105.38;6218896;28;20046;-75
2023/08/06 12:05:33;;;;;;;4.10;1.60;;;;;;;20.04;100.00;100097.50;6218469;28;20135;-74
2023/08/06 12:08:34;;;;;;;1.58;1.38;;;;;;;20.31;100.00;100091.13;6223579;28;20465;-75
2023/08/06 12:11:36;;;;;;;1.73;1.27;;;;;;;20.59;100.00;100102.41;6214217;28;20061;-74
2023/08/06 12:14:38;;;;;;;1.88;1.40;;;;;;;20.71;100.00;100092.25;6229742;28;20042;-74
2023/08/06 12:17:40;;;;;;;1.30;1.20;;;;;;;20.94;100.00;100092.50;6229510;28;20042;-72
2023/08/06 12:20:42;;;;;;;1.63;1.20;;;;;;;21.12;100.00;100079.81;6219005;28;20050;-75
2023/08/06 12:23:44;;;;;;;1.75;1.40;;;;;;;21.08;100.00;100085.66;6225806;28;20048;-75
2023/08/06 12:26:45;;;;;;;1.70;1.10;;;;;;;20.89;100.00;100084.13;6204450;28;20253;-77
2023/08/06 12:29:49;;;;;;;1.52;1.27;;;;;;;20.88;100.00;100080.59;6219820;22;20049;-77
2023/08/06 12:32:51;;;;;;;2.95;1.55;;;;;;;20.99;100.00;100080.31;6161734;28;20197;-75
2023/08/06 12:35:54;;;;;;;1.67;1.15;;;;;;;21.14;100.00;100085.81;6171052;28;20047;-76
2023/08/06 12:38:56;;;;;;;1.73;1.00;;;;;;;21.28;100.00;100081.66;6175645;28;20055;-75
2023/08/06 12:41:57;;;;;;;2.05;1.10;;;;;;;21.52;100.00;100083.50;6180312;28;20057;-76
2023/08/06 12:45:00;;;;;;;1.13;0.90;;;;;;;21.51;100.00;100069.28;6180784;28;20055;-76
2023/08/06 12:48:02;;;;;;;1.70;1.10;;;;;;;21.71;100.00;100072.44;6181063;28;20055;-76
2023/08/06 12:51:03;;;;;;;1.17;0.93;;;;;;;21.75;100.00;100079.09;6180804;28;20051;-76
2023/08/06 12:54:04;;;;;;;2.95;1.10;;;;;;;21.88;100.00;100067.88;6179704;28;20066;-76
2023/08/06 12:57:06;;;;;;;2.42;1.15;;;;;;;22.15;100.00;100080.03;6180775;28;20062;-76
2023/08/06 13:00:09;;;;;;;2.28;1.30;;;;;;;22.16;100.00;100071.00;6180884;28;20050;-76
2023/08/06 13:03:11;;;;;;;10.43;1.00;;;;;;;22.31;100.00;100072.97;6180459;28;20361;-73
2023/08/06 13:06:12;;;;;;;0.93;0.82;;;;;;;22.43;100.00;100069.69;6180671;28;20050;-76
2023/08/06 13:09:14;;;;;;;1.42;0.90;;;;;;;22.53;100.00;100062.31;6180549;28;20058;-74
2023/08/06 13:12:15;;;;;;;1.63;1.10;;;;;;;22.64;100.00;100076.28;6180354;28;20466;-74
2023/08/06 13:15:20;;;;;;;1.50;1.00;;;;;;;22.51;100.00;100072.34;6180393;28;20050;-74
2023/08/06 13:18:22;;;;;;;1.23;0.98;;;;;;;22.23;100.00;100068.47;6180505;28;20055;-74
2023/08/06 13:21:23;;;;;;;2.05;1.27;;;;;;;22.21;100.00;100063.31;6180162;28;20443;-74
2023/08/06 13:24:25;;;;;;;1.20;0.80;;;;;;;22.44;100.00;100073.22;6179867;28;20055;-75
2023/08/06 13:27:26;;;;;;;1.48;0.82;;;;;;;22.51;100.00;100075.00;6180353;28;20054;-74
2023/08/06 13:30:29;;;;;;;2.50;1.13;;;;;;;22.64;100.00;100070.94;6179866;28;20058;-74
2023/08/06 13:33:30;;;;;;;1.30;1.00;;;;;;;22.44;100.00;100074.06;6179610;28;20069;-74
2023/08/06 13:36:32;;;;;;;0.88;0.70;;;;;;;22.13;100.00;100065.16;6180336;28;20055;-75
2023/08/06 13:39:33;;;;;;;1.27;1.13;;;;;;;21.93;100.00;100070.03;6180347;28;20062;-77
2023/08/06 13:42:34;;;;;;;1.00;0.70;;;;;;;;;;6181162;28;20051;-76
2023/08/06 13:45:38;;;;;;;1.27;0.90;;;;;;;21.46;100.00;100081.50;6180484;28;20051;-75
2023/08/06 13:48:39;;;;;;;2.78;1.23;;;;;;;21.30;100.00;100082.31;6179953;28;20432;-75
2023/08/06 13:51:40;;;;;;;2.35;1.10;;;;;;;21.29;100.00;100085.97;6179634;28;20360;-75
2023/08/06 13:54:42;;;;;;;0.88;0.88;;;;;;;21.17;100.00;100080.16;6179124;28;20359;-75